Carp, Nevada
Current Conditions -  °F | °C
As of 5:55 AM on Thursday 30 Oct 2014 (Local Time) from KSGU Reporting Station
Clear Clear  
Wind Chill: 50°   Ceiling: Unl
Heat Index: 50°   Visibility: 10mi
Dew Point: 18°   Wind: 0mph
Humidity: 28%   Direction: NA
Pressure: 30.2"   Gusts: NA
Location:  37.2951°N, 114.495°W
Report Text: KSGU 301255Z AUTO 00000KT 10SM CLR 10/M08 A3020 RMK AO1
Loading
Personal Weather Stations






























Interactive Weather Map
Tropical Storm Tracking
New forecast layout! Learn more

10-Day Weather Forecast

Advertisements
Track Severe Weather on mobile